NCAR-RAP Real-Time Weather Data

Output produced by METARs form (26 September 2017  05:41 UTC)
found at http://weather.rap.ucar.edu/surface/
 
Conditions at: KALB observed 26 September 2017  04:51 UTC
Temperature: 21.1°C (70°F)
Dewpoint: 19.4°C (67°F) [RH = 90%]
Pressure (altimeter): 30.03 inches Hg (1017.0 mb)
[Sea-level pressure: 1016.6 mb]
Winds: calm
Visibility: 10 or more miles (16+ km)
Ceiling: at least 12,000 feet AGL
Clouds: few clouds at 26000 feet AGL
Present Weather: no significant weather observed at this time
KALB 260451Z 00000KT 10SM FEW260 21/19 A3003 RMK AO2 SLP166 T02110194 403280178

Conditions at: KALB observed 26 September 2017  03:51 UTC
Temperature: 21.7°C (71°F)
Dewpoint: 18.9°C (66°F) [RH = 84%]
Pressure (altimeter): 30.02 inches Hg (1016.7 mb)
[Sea-level pressure: 1016.4 mb]
Winds: calm
Visibility: 10 or more miles (16+ km)
Ceiling: at least 12,000 feet AGL
Clouds: few clouds at 26000 feet AGL
Present Weather: no significant weather observed at this time
KALB 260351Z 00000KT 10SM FEW260 22/19 A3002 RMK AO2 SLP164 T02170189

Conditions at: KALB observed 26 September 2017  02:51 UTC
Temperature: 22.8°C (73°F)
Dewpoint: 19.4°C (67°F) [RH = 81%]
Pressure (altimeter): 30.03 inches Hg (1017.0 mb)
[Sea-level pressure: 1016.7 mb]
Winds: calm
Visibility: 10 or more miles (16+ km)
Ceiling: at least 12,000 feet AGL
Clouds: few clouds at 5000 feet AGL
Present Weather: no significant weather observed at this time
KALB 260251Z 00000KT 10SM FEW050 23/19 A3003 RMK AO2 SLP167 T02280194 50001

Conditions at: KALB observed 26 September 2017  01:51 UTC
Temperature: 23.3°C (74°F)
Dewpoint: 19.4°C (67°F) [RH = 79%]
Pressure (altimeter): 30.03 inches Hg (1017.0 mb)
[Sea-level pressure: 1016.8 mb]
Winds: calm
Visibility: 10 or more miles (16+ km)
Ceiling: 5000 feet AGL
Clouds: broken clouds at 5000 feet AGL
broken clouds at 26000 feet AGL
Present Weather: no significant weather observed at this time
KALB 260151Z 00000KT 10SM BKN050 BKN260 23/19 A3003 RMK AO2 SLP168 T02330194

Conditions at: KALB observed 26 September 2017  00:51 UTC
Temperature: 23.9°C (75°F)
Dewpoint: 19.4°C (67°F) [RH = 76%]
Pressure (altimeter): 30.03 inches Hg (1017.0 mb)
[Sea-level pressure: 1016.7 mb]
Winds: calm
Visibility: 10 or more miles (16+ km)
Ceiling: at least 12,000 feet AGL
Clouds: few clouds at 20000 feet AGL
few clouds at 26000 feet AGL
Present Weather: no significant weather observed at this time
KALB 260051Z 00000KT 10SM FEW200 FEW260 24/19 A3003 RMK AO2 SLP167 T02390194

Conditions at: KALB observed 25 September 2017  23:51 UTC
Temperature: 25.0°C (77°F)
Dewpoint: 19.4°C (67°F) [RH = 71%]
Pressure (altimeter): 30.03 inches Hg (1017.0 mb)
[Sea-level pressure: 1016.6 mb]
Winds: calm
Visibility: 10 or more miles (16+ km)
Ceiling: at least 12,000 feet AGL
Clouds: few clouds at 4700 feet AGL
few clouds at 11000 feet AGL
few clouds at 20000 feet AGL
few clouds at 26000 feet AGL
Present Weather: no significant weather observed at this time
KALB 252351Z 00000KT 10SM FEW047 FEW110 FEW200 FEW260 25/19 A3003 RMK AO2 SLP166 T02500194 10328 20244 53002

Conditions at: KALB observed 25 September 2017  22:51 UTC
Temperature: 27.2°C (81°F)
Dewpoint: 18.9°C (66°F) [RH = 61%]
Pressure (altimeter): 30.02 inches Hg (1016.7 mb)
[Sea-level pressure: 1016.4 mb]
Winds: calm
Visibility: 10 or more miles (16+ km)
Ceiling: at least 12,000 feet AGL
Clouds: few clouds at 4700 feet AGL
few clouds at 11000 feet AGL
few clouds at 20000 feet AGL
scattered clouds at 26000 feet AGL
Present Weather: no significant weather observed at this time
KALB 252251Z 00000KT 10SM FEW047 FEW110 FEW200 SCT260 27/19 A3002 RMK AO2 SLP164 T02720189

Conditions at: KALB observed 25 September 2017  21:51 UTC
Temperature: 31.1°C (88°F)
Dewpoint: 17.8°C (64°F) [RH = 45%]
Pressure (altimeter): 30.02 inches Hg (1016.7 mb)
[Sea-level pressure: 1016.3 mb]
Winds: from the NNE (20 degrees) at 5 MPH (4 knots; 2.1 m/s)
Visibility: 10 or more miles (16+ km)
Ceiling: at least 12,000 feet AGL
Clouds: few clouds at 4700 feet AGL
few clouds at 20000 feet AGL
few clouds at 26000 feet AGL
Present Weather: no significant weather observed at this time
KALB 252151Z 02004KT 10SM FEW047 FEW200 FEW260 31/18 A3002 RMK AO2 SLP163 T03110178

Conditions at: KALB observed 25 September 2017  20:51 UTC
Temperature: 32.2°C (90°F)
Dewpoint: 17.2°C (63°F) [RH = 41%]
Pressure (altimeter): 30.02 inches Hg (1016.7 mb)
[Sea-level pressure: 1016.4 mb]
Winds: from the N (360 degrees) at 3 MPH (3 knots; 1.6 m/s)
Visibility: 10 or more miles (16+ km)
Ceiling: at least 12,000 feet AGL
Clouds: few clouds at 4500 feet AGL
few clouds at 26000 feet AGL
Present Weather: no significant weather observed at this time
KALB 252051Z 36003KT 10SM FEW045 FEW260 32/17 A3002 RMK AO2 SLP164 T03220172 56014

Conditions at: KALB observed 25 September 2017  19:51 UTC
Temperature: 32.8°C (91°F)
Dewpoint: 18.3°C (65°F) [RH = 42%]
Pressure (altimeter): 30.03 inches Hg (1017.0 mb)
[Sea-level pressure: 1016.5 mb]
Winds: variable direction winds at 5 MPH (4 knots; 2.1 m/s)
Visibility: 10 or more miles (16+ km)
Ceiling: at least 12,000 feet AGL
Clouds: few clouds at 4500 feet AGL
few clouds at 26000 feet AGL
Present Weather: no significant weather observed at this time
KALB 251951Z VRB04KT 10SM FEW045 FEW260 33/18 A3003 RMK AO2 SLP165 T03280183

Conditions at: KALB observed 25 September 2017  18:51 UTC
Temperature: 32.2°C (90°F)
Dewpoint: 19.4°C (67°F) [RH = 47%]
Pressure (altimeter): 30.04 inches Hg (1017.4 mb)
[Sea-level pressure: 1017.0 mb]
Winds: from the NNW (340 degrees) at 6 MPH (5 knots; 2.6 m/s)
Visibility: 10 or more miles (16+ km)
Ceiling: at least 12,000 feet AGL
Clouds: few clouds at 4500 feet AGL
few clouds at 26000 feet AGL
Present Weather: no significant weather observed at this time
KALB 251851Z 34005KT 10SM FEW045 FEW260 32/19 A3004 RMK AO2 SLP170 T03220194

Conditions at: KALB observed 25 September 2017  17:51 UTC
Temperature: 31.7°C (89°F)
Dewpoint: 20.0°C (68°F) [RH = 50%]
Pressure (altimeter): 30.06 inches Hg (1018.0 mb)
[Sea-level pressure: 1017.7 mb]
Winds: from the N (360 degrees) at 5 MPH (4 knots; 2.1 m/s)
Visibility: 10 or more miles (16+ km)
Ceiling: at least 12,000 feet AGL
Clouds: few clouds at 3500 feet AGL
few clouds at 26000 feet AGL
Present Weather: no significant weather observed at this time
KALB 251751Z 36004KT 10SM FEW035 FEW260 32/20 A3006 RMK AO2 SLP177 TCU DSNT E T03170200 10317 20200 58014